Time;durP1;ratioP1;P1;durP2;ratioP2;P2;SDS_P1;SDS_P2;PMS_P1;PMS_P2;Temp;Humidity;BMP_temperature;BMP_pressure;BME280_temperature;BME280_humidity;BME280_pressure;Samples;Min_cycle;Max_cycle;Signal;HPM_P1;HPM_P2
2022/06/18 00:01:47;;;;;;;13.43;6.80;;;18.30;99.90;;;;;;5109120;28;20040;-58
2022/06/18 00:04:17;;;;;;;10.63;5.80;;;18.20;99.90;;;;;;5111743;28;20043;-58
2022/06/18 00:06:57;;;;;;;11.85;5.47;;;18.10;99.90;;;;;;5110221;28;20036;-57
2022/06/18 00:09:29;;;;;;;8.68;4.57;;;18.00;99.90;;;;;;5101679;28;20048;-57
2022/06/18 00:14:46;;;;;;;8.00;4.00;;;17.70;99.90;;;;;;5108128;28;20060;-56
2022/06/18 00:17:16;;;;;;;7.80;4.00;;;17.60;99.90;;;;;;5104636;28;20048;-56
2022/06/18 00:19:45;;;;;;;8.40;4.05;;;17.50;99.90;;;;;;5109936;28;20482;-58
2022/06/18 00:22:18;;;;;;;4.40;2.92;;;17.50;99.90;;;;;;5111997;28;20537;-57
2022/06/18 00:24:47;;;;;;;8.10;2.95;;;17.40;99.90;;;;;;5109603;28;20046;-58
2022/06/18 00:27:17;;;;;;;7.63;2.80;;;17.40;99.90;;;;;;5110999;28;20051;-58
2022/06/18 00:29:48;;;;;;;7.15;3.20;;;17.40;99.90;;;;;;5104247;28;20036;-56
2022/06/18 00:32:16;;;;;;;;;;;17.40;99.90;;;;;;5111292;28;20400;-55
2022/06/18 00:34:44;;;;;;;4.68;2.63;;;17.40;99.90;;;;;;5108263;28;20291;-55
2022/06/18 00:37:17;;;;;;;6.25;2.40;;;17.40;99.90;;;;;;5108902;28;20510;-55
2022/06/18 00:39:46;;;;;;;6.07;2.58;;;17.40;99.90;;;;;;5095751;28;20047;-57
2022/06/18 00:42:25;;;;;;;6.85;2.78;;;17.40;99.90;;;;;;5097925;28;20058;-57
2022/06/18 00:44:55;;;;;;;5.75;2.88;;;17.40;99.90;;;;;;5109760;28;20400;-58
2022/06/18 00:47:37;;;;;;;3.83;1.95;;;17.40;99.90;;;;;;5111770;28;20036;-57
2022/06/18 00:50:27;;;;;;;3.17;1.73;;;17.30;99.90;;;;;;5109987;28;20044;-57
2022/06/18 00:53:02;;;;;;;;;;;17.30;99.90;;;;;;5111579;28;20480;-58
2022/06/18 00:55:34;;;;;;;4.40;1.95;;;17.30;99.90;;;;;;5111035;28;20286;-58
2022/06/18 00:58:37;;;;;;;4.80;1.98;;;17.20;99.90;;;;;;5105392;28;20054;-58
2022/06/18 01:01:15;;;;;;;3.95;1.90;;;17.20;99.90;;;;;;5102927;28;20062;-58
2022/06/18 01:03:45;;;;;;;4.82;1.88;;;17.20;99.90;;;;;;5094737;28;20035;-60
2022/06/18 01:06:19;;;;;;;6.10;1.63;;;17.20;99.90;;;;;;5108234;28;20052;-58
2022/06/18 01:09:03;;;;;;;3.78;1.30;;;17.20;99.90;;;;;;5101817;28;20048;-57
2022/06/18 01:11:35;;;;;;;4.28;1.50;;;17.30;99.90;;;;;;5107842;28;20040;-59
2022/06/18 01:14:06;;;;;;;5.82;1.60;;;17.20;99.90;;;;;;5107830;28;20059;-59
2022/06/18 01:16:36;;;;;;;3.42;2.03;;;17.20;99.90;;;;;;5110374;28;20048;-59
2022/06/18 01:19:15;;;;;;;1.50;1.40;;;17.30;99.90;;;;;;5083238;28;20059;-59
2022/06/18 01:21:54;;;;;;;3.95;1.52;;;17.30;99.90;;;;;;5106427;28;20047;-59
2022/06/18 01:24:32;;;;;;;6.15;1.55;;;17.30;99.90;;;;;;5110726;28;20047;-57
2022/06/18 01:27:01;;;;;;;3.03;1.13;;;17.20;99.90;;;;;;5110153;28;20425;-56
2022/06/18 01:29:29;;;;;;;1.70;0.85;;;17.20;99.90;;;;;;5100657;28;20043;-56
2022/06/18 01:31:57;;;;;;;2.92;0.80;;;17.20;99.90;;;;;;5105848;28;20051;-55
2022/06/18 01:34:25;;;;;;;2.72;1.00;;;17.10;99.90;;;;;;5096521;28;20032;-56
2022/06/18 01:36:57;;;;;;;;;;;17.10;99.90;;;;;;5111837;28;20046;-57
2022/06/18 01:39:26;;;;;;;;;;;17.00;99.90;;;;;;5098742;28;19924;-57
2022/06/18 01:42:02;;;;;;;3.05;0.73;;;17.00;99.90;;;;;;5084581;28;19924;-57
2022/06/18 01:44:35;;;;;;;2.38;0.70;;;16.90;99.90;;;;;;5111333;28;20046;-55
2022/06/18 01:47:26;;;;;;;5.28;0.95;;;16.90;99.90;;;;;;5108920;28;20048;-55
2022/06/18 01:50:06;;;;;;;0.77;0.77;;;16.90;99.90;;;;;;5111844;28;20049;-56
2022/06/18 01:52:40;;;;;;;2.92;1.10;;;16.90;99.90;;;;;;5110872;28;20048;-55
2022/06/18 01:55:18;;;;;;;2.78;1.05;;;16.90;99.90;;;;;;5111385;28;20371;-55
2022/06/18 01:57:52;;;;;;;2.95;1.00;;;16.90;99.90;;;;;;5108986;28;20040;-55
2022/06/18 02:00:24;;;;;;;3.65;1.40;;;16.90;99.90;;;;;;5109981;28;20051;-56
2022/06/18 02:03:01;;;;;;;4.32;1.30;;;16.90;99.90;;;;;;5111685;28;20051;-58
2022/06/18 02:05:30;;;;;;;2.95;1.40;;;16.90;99.90;;;;;;5110125;28;20615;-57
2022/06/18 02:07:59;;;;;;;2.65;1.15;;;16.80;99.90;;;;;;5092462;28;20406;-55
2022/06/18 02:10:57;;;;;;;4.72;1.30;;;16.80;99.90;;;;;;5112313;28;20150;-58
2022/06/18 02:13:33;;;;;;;2.90;1.27;;;16.70;99.90;;;;;;5105322;28;20514;-56
2022/06/18 02:16:04;;;;;;;1.95;1.00;;;16.60;99.90;;;;;;5110922;28;20051;-58
2022/06/18 02:18:34;;;;;;;1.70;1.48;;;16.60;99.90;;;;;;5111712;28;20390;-57
2022/06/18 02:21:07;;;;;;;7.23;1.40;;;16.60;99.90;;;;;;5111272;28;20051;-57
2022/06/18 02:23:35;;;;;;;6.10;1.30;;;16.60;99.90;;;;;;5093620;28;20299;-57
2022/06/18 02:26:04;;;;;;;3.10;1.25;;;16.60;99.90;;;;;;5112793;28;20512;-58
2022/06/18 02:28:36;;;;;;;2.47;1.40;;;16.60;99.90;;;;;;5108842;28;20555;-58
2022/06/18 02:31:04;;;;;;;5.78;1.38;;;16.60;99.90;;;;;;5112928;28;20047;-57
2022/06/18 02:33:35;;;;;;;2.75;1.33;;;16.50;99.90;;;;;;5109943;28;20515;-55
2022/06/18 02:36:24;;;;;;;5.75;1.42;;;16.50;99.90;;;;;;5110149;28;20054;-56
2022/06/18 02:39:05;;;;;;;2.57;0.87;;;16.50;99.90;;;;;;5111100;28;20031;-57
2022/06/18 02:41:33;;;;;;;9.65;1.65;;;16.40;99.90;;;;;;5108959;28;20292;-58
2022/06/18 02:44:01;;;;;;;8.77;1.60;;;16.40;99.90;;;;;;5110565;28;20058;-55
2022/06/18 02:46:29;;;;;;;7.40;1.35;;;16.30;99.90;;;;;;5107649;28;20047;-58
2022/06/18 02:49:02;;;;;;;10.45;1.83;;;16.30;99.90;;;;;;5094898;28;20499;-58
2022/06/18 02:51:34;;;;;;;6.15;1.05;;;16.30;99.90;;;;;;5107679;28;20043;-58
2022/06/18 02:54:05;;;;;;;3.75;0.77;;;16.20;99.90;;;;;;5111363;28;20051;-57
2022/06/18 02:56:34;;;;;;;;;;;16.20;99.90;;;;;;5109603;28;20035;-58
2022/06/18 02:59:04;;;;;;;;;;;16.20;99.90;;;;;;5108902;28;19920;-58
2022/06/18 03:01:33;;;;;;;6.07;1.20;;;16.20;99.90;;;;;;5109260;28;19975;-58
2022/06/18 03:04:04;;;;;;;7.32;1.42;;;16.10;99.90;;;;;;5108957;28;20039;-57
2022/06/18 03:06:33;;;;;;;7.97;1.17;;;16.10;99.90;;;;;;5107765;28;20047;-55
2022/06/18 03:09:01;;;;;;;5.90;1.20;;;16.10;99.90;;;;;;5111353;28;20036;-58
2022/06/18 03:14:18;;;;;;;6.07;1.00;;;16.00;99.90;;;;;;5109179;28;20039;-57
2022/06/18 03:16:47;;;;;;;7.72;0.80;;;15.90;99.90;;;;;;5108296;28;20035;-56
2022/06/18 03:19:29;;;;;;;5.53;1.08;;;15.90;99.90;;;;;;5110220;28;20506;-57
2022/06/18 03:22:05;;;;;;;9.52;1.30;;;15.90;99.90;;;;;;5110522;28;20044;-57
2022/06/18 03:24:35;;;;;;;6.03;1.40;;;15.90;99.90;;;;;;5127682;27;20040;-58
2022/06/18 03:27:04;;;;;;;14.68;2.65;;;15.80;99.90;;;;;;5108801;28;20071;-56
2022/06/18 03:29:31;;;;;;;5.38;1.25;;;15.80;99.90;;;;;;5092326;28;20507;-57
2022/06/18 03:32:01;;;;;;;10.93;1.58;;;15.80;99.90;;;;;;5109699;28;20043;-57
2022/06/18 03:34:30;;;;;;;4.35;1.08;;;15.80;99.90;;;;;;5109669;28;20043;-58
2022/06/18 03:36:58;;;;;;;10.02;2.47;;;15.80;99.90;;;;;;5108739;28;20044;-58
2022/06/18 03:39:27;;;;;;;8.20;0.88;;;15.80;99.90;;;;;;5110703;28;20062;-57
2022/06/18 03:41:55;;;;;;;10.20;2.28;;;15.70;99.90;;;;;;5110643;28;20050;-58
2022/06/18 03:44:24;;;;;;;11.15;1.27;;;15.70;99.90;;;;;;5110755;28;20039;-57
2022/06/18 03:46:52;;;;;;;8.02;1.23;;;15.70;99.90;;;;;;5111032;28;20044;-58
2022/06/18 03:49:29;;;;;;;9.20;1.13;;;15.70;99.90;;;;;;5108601;28;20050;-57
2022/06/18 03:52:01;;;;;;;8.82;1.30;;;15.70;99.90;;;;;;5109278;28;20051;-58
2022/06/18 03:54:29;;;;;;;10.18;1.48;;;15.60;99.90;;;;;;5105639;28;20048;-58
2022/06/18 03:56:58;;;;;;;11.65;1.30;;;15.50;99.90;;;;;;5109670;28;20043;-58
2022/06/18 03:59:28;;;;;;;9.27;1.15;;;15.50;99.90;;;;;;5106937;28;20055;-58
2022/06/18 04:01:56;;;;;;;13.02;1.00;;;15.50;99.90;;;;;;5107656;28;20036;-58
2022/06/18 04:04:29;;;;;;;8.68;0.95;;;15.50;99.90;;;;;;5109743;28;20075;-58
2022/06/18 04:06:56;;;;;;;12.40;1.58;;;15.40;99.90;;;;;;5109034;28;20054;-56
2022/06/18 04:09:43;;;;;;;8.75;1.40;;;15.40;99.90;;;;;;5111581;28;20039;-56
2022/06/18 04:12:17;;;;;;;11.02;1.30;;;15.40;99.90;;;;;;5110407;28;20483;-55
2022/06/18 04:15:00;;;;;;;12.90;1.10;;;15.40;99.90;;;;;;5109913;28;20036;-55
2022/06/18 04:18:01;;;;;;;14.55;1.58;;;15.40;99.90;;;;;;5084200;28;20036;-55
2022/06/18 04:20:35;;;;;;;10.63;2.10;;;15.30;99.90;;;;;;5107529;28;20395;-55
2022/06/18 04:23:06;;;;;;;12.65;1.75;;;15.30;99.90;;;;;;5115925;28;20043;-55
2022/06/18 04:25:39;;;;;;;10.75;1.48;;;15.20;99.90;;;;;;5107688;28;20051;-56
2022/06/18 04:28:10;;;;;;;14.52;1.45;;;15.20;99.90;;;;;;5109003;28;20051;-55
2022/06/18 04:30:40;;;;;;;7.53;1.33;;;15.20;99.90;;;;;;5109682;28;20051;-55
2022/06/18 04:33:18;;;;;;;7.88;1.17;;;15.20;99.90;;;;;;5109230;28;20051;-57
2022/06/18 04:35:57;;;;;;;9.77;1.50;;;15.20;99.90;;;;;;5107814;28;20059;-56
2022/06/18 04:38:27;;;;;;;13.50;1.65;;;15.20;99.90;;;;;;5109198;28;20044;-56
2022/06/18 04:40:59;;;;;;;7.22;1.90;;;15.20;99.90;;;;;;5108646;28;20044;-56
2022/06/18 04:43:39;;;;;;;11.65;1.58;;;15.20;99.90;;;;;;5101759;28;20035;-55
2022/06/18 04:46:10;;;;;;;8.52;1.02;;;15.20;99.90;;;;;;5108224;28;20047;-57
2022/06/18 04:48:41;;;;;;;12.93;2.03;;;15.20;99.90;;;;;;5089912;28;20044;-57
2022/06/18 04:51:09;;;;;;;17.52;1.80;;;15.20;99.90;;;;;;5090827;28;20051;-56
2022/06/18 04:53:37;;;;;;;18.00;1.80;;;15.10;99.90;;;;;;5104479;28;20055;-56
2022/06/18 04:56:08;;;;;;;;;;;15.10;99.90;;;;;;5109949;28;20063;-58
2022/06/18 04:58:37;;;;;;;12.50;1.50;;;15.20;99.90;;;;;;5105124;28;20444;-58
2022/06/18 05:01:06;;;;;;;10.18;1.77;;;15.20;99.90;;;;;;5108643;28;20047;-57
2022/06/18 05:03:52;;;;;;;9.43;1.30;;;15.20;99.90;;;;;;5103725;28;20046;-58
2022/06/18 05:06:39;;;;;;;15.23;1.95;;;15.20;99.90;;;;;;5107160;28;20039;-57
2022/06/18 05:09:19;;;;;;;11.15;1.85;;;15.20;99.90;;;;;;5096180;28;20043;-57
2022/06/18 05:11:58;;;;;;;8.75;1.23;;;15.10;99.90;;;;;;5110846;28;20414;-57
2022/06/18 05:14:38;;;;;;;8.57;1.13;;;15.10;99.90;;;;;;5109585;28;20055;-57
2022/06/18 05:17:14;;;;;;;13.95;1.50;;;15.00;99.90;;;;;;5108260;28;20481;-55
2022/06/18 05:19:43;;;;;;;13.88;1.35;;;15.10;99.90;;;;;;5095066;28;20044;-56
2022/06/18 05:22:12;;;;;;;18.50;2.60;;;15.00;99.90;;;;;;5105747;28;20058;-57
2022/06/18 05:24:39;;;;;;;12.05;1.40;;;15.00;99.90;;;;;;5107953;28;20054;-56
2022/06/18 05:27:27;;;;;;;8.15;1.60;;;15.00;99.90;;;;;;5105582;28;20035;-57
2022/06/18 05:29:55;;;;;;;10.25;2.17;;;15.00;99.90;;;;;;5092136;28;20394;-55
2022/06/18 05:32:28;;;;;;;18.20;2.50;;;15.00;99.90;;;;;;5095956;28;20047;-57
2022/06/18 05:34:56;;;;;;;21.90;2.35;;;14.90;99.90;;;;;;5107943;28;20051;-57
2022/06/18 05:37:26;;;;;;;18.92;2.30;;;14.90;99.90;;;;;;5102433;28;20047;-57
2022/06/18 05:39:54;;;;;;;14.73;1.40;;;15.00;99.90;;;;;;5090674;28;20360;-58
2022/06/18 05:42:22;;;;;;;13.75;2.72;;;15.00;99.90;;;;;;5110332;28;20388;-58
2022/06/18 05:44:51;;;;;;;12.80;1.83;;;15.00;99.90;;;;;;5111286;28;20372;-57
2022/06/18 05:47:27;;;;;;;12.75;1.70;;;15.00;99.90;;;;;;5107400;28;20035;-57
2022/06/18 05:49:58;;;;;;;16.55;2.67;;;15.00;99.90;;;;;;5106498;28;20047;-57
2022/06/18 05:52:30;;;;;;;12.73;3.10;;;15.00;99.90;;;;;;5108605;28;20647;-58
2022/06/18 05:55:05;;;;;;;14.57;2.15;;;15.10;99.90;;;;;;5108216;28;20036;-58
2022/06/18 05:57:48;;;;;;;17.45;1.85;;;15.00;99.90;;;;;;5104270;28;20055;-57
2022/06/18 06:00:27;;;;;;;14.50;2.42;;;15.00;99.90;;;;;;5107770;28;20059;-57
2022/06/18 06:02:57;;;;;;;11.35;1.90;;;15.00;99.90;;;;;;5102712;28;20050;-57
2022/06/18 06:05:25;;;;;;;12.10;1.73;;;15.00;99.90;;;;;;5109455;28;20487;-56
2022/06/18 06:07:53;;;;;;;15.50;1.73;;;15.00;99.90;;;;;;5101385;28;20039;-58
2022/06/18 06:13:11;;;;;;;16.65;1.90;;;15.00;99.90;;;;;;5106857;28;20612;-56
2022/06/18 06:15:40;;;;;;;14.68;1.50;;;15.00;99.90;;;;;;5108172;28;20047;-57
2022/06/18 06:18:11;;;;;;;12.70;1.75;;;15.00;99.80;;;;;;5100890;28;20044;-57
2022/06/18 06:20:41;;;;;;;11.13;2.13;;;15.10;99.00;;;;;;5088470;28;20055;-57
2022/06/18 06:23:09;;;;;;;;;;;15.10;98.70;;;;;;5104118;28;20398;-55
2022/06/18 06:25:38;;;;;;;9.20;1.88;;;15.00;98.60;;;;;;5110989;28;20341;-58
2022/06/18 06:28:09;;;;;;;13.60;2.08;;;15.00;98.60;;;;;;5100913;28;20458;-57
2022/06/18 06:30:38;;;;;;;8.13;1.67;;;15.00;98.60;;;;;;5097066;28;20051;-55
2022/06/18 06:33:05;;;;;;;12.07;1.63;;;15.00;98.60;;;;;;5101878;28;20380;-57
2022/06/18 06:35:34;;;;;;;14.02;1.50;;;15.00;98.40;;;;;;5109826;28;20052;-57
2022/06/18 06:38:02;;;;;;;9.88;2.05;;;15.00;98.70;;;;;;5096868;28;20052;-59
2022/06/18 06:40:32;;;;;;;13.10;2.13;;;15.10;98.50;;;;;;5094871;28;20044;-58
2022/06/18 06:43:00;;;;;;;8.25;1.73;;;15.10;98.50;;;;;;5108686;28;20047;-57
2022/06/18 06:45:31;;;;;;;16.27;1.80;;;15.10;98.40;;;;;;5111112;28;20051;-56
2022/06/18 06:47:59;;;;;;;13.52;2.38;;;15.10;97.30;;;;;;5100541;28;20048;-57
2022/06/18 06:50:28;;;;;;;10.63;1.55;;;15.10;97.60;;;;;;5095830;28;20044;-57
2022/06/18 06:52:57;;;;;;;12.48;1.63;;;15.00;97.60;;;;;;5108642;28;20047;-57
2022/06/18 06:58:19;;;;;;;11.68;1.30;;;15.10;97.90;;;;;;5107490;28;20047;-57
2022/06/18 07:00:51;;;;;;;10.98;1.70;;;15.00;98.00;;;;;;5107429;28;20047;-57
2022/06/18 07:03:24;;;;;;;15.73;1.63;;;15.10;98.00;;;;;;5105057;28;20071;-60
2022/06/18 07:05:51;;;;;;;15.23;2.17;;;15.20;98.10;;;;;;5102073;28;20047;-57
2022/06/18 07:08:19;;;;;;;8.45;2.03;;;15.30;98.10;;;;;;5104334;28;20076;-59
2022/06/18 07:10:50;;;;;;;14.55;1.33;;;15.30;97.90;;;;;;5108413;28;20047;-58
2022/06/18 07:13:18;;;;;;;10.23;1.25;;;15.30;97.90;;;;;;5108691;28;20659;-58
2022/06/18 07:15:47;;;;;;;13.27;1.48;;;15.40;97.70;;;;;;5110646;28;20050;-58
2022/06/18 07:18:20;;;;;;;18.95;1.85;;;15.40;97.70;;;;;;5097552;28;20040;-56
2022/06/18 07:20:48;;;;;;;13.75;1.73;;;15.50;97.80;;;;;;5107455;28;20047;-56
2022/06/18 07:23:16;;;;;;;17.88;2.20;;;15.50;97.70;;;;;;5108508;28;20503;-57
2022/06/18 07:25:43;;;;;;;12.65;1.35;;;15.60;97.60;;;;;;5109504;28;20040;-57
2022/06/18 07:28:11;;;;;;;10.57;1.63;;;15.70;97.80;;;;;;5099928;28;20047;-57
2022/06/18 07:30:39;;;;;;;10.98;2.30;;;15.80;97.80;;;;;;5096351;28;20047;-57
2022/06/18 07:33:10;;;;;;;10.07;1.73;;;15.90;97.50;;;;;;5103776;28;20060;-57
2022/06/18 07:35:38;;;;;;;;;;;15.90;97.30;;;;;;5096709;28;20051;-56
2022/06/18 07:38:06;;;;;;;19.20;2.17;;;15.90;97.20;;;;;;5098065;28;19923;-57
2022/06/18 07:40:44;;;;;;;6.40;1.30;;;15.90;97.40;;;;;;5103638;28;20032;-57
2022/06/18 07:43:17;;;;;;;12.32;1.40;;;16.00;97.30;;;;;;5109306;28;20048;-57
2022/06/18 07:45:46;;;;;;;14.43;1.42;;;16.00;96.70;;;;;;5109495;28;20052;-57
2022/06/18 07:48:14;;;;;;;12.35;1.70;;;15.90;96.70;;;;;;5103018;28;20040;-58
2022/06/18 07:50:44;;;;;;;14.32;1.50;;;15.90;96.70;;;;;;5110061;28;20047;-57
2022/06/18 07:53:21;;;;;;;16.27;1.77;;;15.90;96.70;;;;;;5102842;28;20028;-57
2022/06/18 07:55:50;;;;;;;7.65;1.27;;;15.90;97.10;;;;;;5109392;28;20054;-58
2022/06/18 07:58:18;;;;;;;15.20;2.95;;;16.00;97.20;;;;;;5106010;28;20047;-57
2022/06/18 08:00:45;;;;;;;9.10;1.42;;;16.10;97.00;;;;;;5094987;28;20044;-58
2022/06/18 08:03:14;;;;;;;13.93;1.98;;;16.10;97.10;;;;;;5102849;28;20046;-58
2022/06/18 08:05:43;;;;;;;15.87;1.57;;;16.20;96.30;;;;;;5107950;28;20043;-58
2022/06/18 08:08:12;;;;;;;7.43;1.55;;;16.20;96.40;;;;;;5100018;28;20387;-58
2022/06/18 08:11:00;;;;;;;11.23;1.60;;;16.30;96.50;;;;;;5104888;28;20501;-58
2022/06/18 08:13:28;;;;;;;8.05;1.40;;;16.30;96.40;;;;;;5107422;28;20051;-58
2022/06/18 08:15:56;;;;;;;10.00;1.70;;;16.30;96.10;;;;;;5105086;28;20040;-58
2022/06/18 08:18:23;;;;;;;8.25;1.13;;;16.20;95.80;;;;;;5102699;28;20047;-58
2022/06/18 08:21:11;;;;;;;14.93;1.88;;;16.20;96.00;;;;;;5104059;28;20036;-58
2022/06/18 08:23:38;;;;;;;10.77;2.03;;;16.20;96.20;;;;;;5103104;28;20134;-58
2022/06/18 08:26:08;;;;;;;16.50;1.33;;;16.30;96.10;;;;;;5109858;28;20623;-56
2022/06/18 08:28:37;;;;;;;10.75;1.67;;;16.30;95.80;;;;;;5100280;28;20048;-56
2022/06/18 08:31:07;;;;;;;14.32;1.73;;;16.30;95.80;;;;;;5102320;28;20040;-57
2022/06/18 08:33:34;;;;;;;19.20;2.17;;;16.30;95.90;;;;;;5107557;28;20042;-56
2022/06/18 08:36:06;;;;;;;7.97;1.55;;;16.20;95.50;;;;;;5104274;28;20530;-58
2022/06/18 08:38:34;;;;;;;9.43;1.52;;;16.20;96.10;;;;;;5103099;28;20039;-58
2022/06/18 08:41:30;;;;;;;14.60;1.92;;;16.20;97.20;;;;;;5110585;28;20039;-57
2022/06/18 08:44:21;;;;;;;10.88;2.08;;;16.20;97.90;;;;;;5097701;28;20518;-57
2022/06/18 08:46:52;;;;;;;6.55;1.50;;;16.20;98.60;;;;;;5096245;28;20044;-56
2022/06/18 08:49:51;;;;;;;8.85;1.38;;;16.20;98.60;;;;;;5109236;28;20040;-56
2022/06/18 08:53:12;;;;;;;7.72;1.63;;;16.00;98.50;;;;;;5102065;28;20043;-56
2022/06/18 08:55:47;;;;;;;8.07;1.75;;;16.20;98.20;;;;;;5067821;28;20466;-56
2022/06/18 08:58:56;;;;;;;9.30;1.30;;;16.10;98.10;;;;;;5094476;28;20399;-56
2022/06/18 09:01:49;;;;;;;8.35;1.20;;;16.00;98.40;;;;;;5086371;28;20047;-56
2022/06/18 09:04:35;;;;;;;12.43;1.65;;;15.90;98.00;;;;;;5100927;28;20603;-57
2022/06/18 09:07:15;;;;;;;13.45;1.67;;;15.80;98.10;;;;;;5108238;28;20052;-57
2022/06/18 09:09:55;;;;;;;12.98;2.10;;;15.70;98.30;;;;;;5097395;28;20039;-57
2022/06/18 09:12:33;;;;;;;9.88;1.30;;;15.70;98.10;;;;;;5104582;28;20517;-58
2022/06/18 09:15:21;;;;;;;14.15;1.80;;;15.70;98.30;;;;;;5111626;28;20043;-57
2022/06/18 09:17:59;;;;;;;13.20;1.48;;;15.60;98.10;;;;;;5107103;28;20055;-56
2022/06/18 09:20:35;;;;;;;10.18;1.65;;;15.70;98.10;;;;;;5092258;28;20039;-60
2022/06/18 09:23:13;;;;;;;12.95;1.90;;;15.80;98.50;;;;;;5098547;28;20043;-58
2022/06/18 09:25:44;;;;;;;9.93;2.15;;;15.90;98.70;;;;;;5091872;28;20503;-59
2022/06/18 09:28:21;;;;;;;10.40;1.50;;;16.00;98.50;;;;;;5102616;28;20057;-59
2022/06/18 09:31:02;;;;;;;11.40;1.30;;;16.10;98.10;;;;;;5102377;28;20091;-56
2022/06/18 09:33:42;;;;;;;7.72;1.25;;;16.20;97.70;;;;;;5105755;28;20046;-58
2022/06/18 09:36:21;;;;;;;13.55;1.70;;;16.20;97.30;;;;;;5109142;28;20414;-57
2022/06/18 09:39:35;;;;;;;18.33;1.83;;;16.20;97.20;;;;;;5096373;28;20471;-59
2022/06/18 09:42:23;;;;;;;14.70;1.45;;;16.10;97.00;;;;;;5088578;28;20048;-57
2022/06/18 09:45:07;;;;;;;12.60;1.30;;;16.10;97.00;;;;;;5095482;28;20479;-56
2022/06/18 09:47:42;;;;;;;12.65;3.00;;;16.00;96.80;;;;;;5103912;28;20109;-58
2022/06/18 09:50:32;;;;;;;15.93;1.50;;;15.90;96.90;;;;;;5101151;28;20059;-58
2022/06/18 09:53:09;;;;;;;7.70;1.48;;;15.80;96.70;;;;;;5089731;28;20066;-58
2022/06/18 09:55:51;;;;;;;6.90;1.13;;;15.80;96.90;;;;;;5098894;28;21198;-60
2022/06/18 09:58:36;;;;;;;14.50;1.50;;;15.80;96.80;;;;;;5102282;28;20522;-56
2022/06/18 10:01:05;;;;;;;13.52;2.53;;;15.80;96.60;;;;;;5095605;28;20051;-58
2022/06/18 10:09:57;;;;;;;6.68;0.93;;;15.80;96.50;;;;;;5105879;28;20405;-56
2022/06/18 10:12:32;;;;;;;10.98;2.35;;;15.90;96.40;;;;;;5106603;28;20055;-57
2022/06/18 10:15:02;;;;;;;11.82;1.35;;;15.80;96.00;;;;;;5105085;28;20067;-58
2022/06/18 10:17:38;;;;;;;6.75;1.05;;;15.80;95.60;;;;;;5104596;28;20494;-58
2022/06/18 10:20:09;;;;;;;6.22;1.52;;;15.70;95.80;;;;;;5091236;28;20059;-57
2022/06/18 10:22:52;;;;;;;13.98;2.38;;;15.70;96.30;;;;;;5099014;28;20052;-57
2022/06/18 10:25:42;;;;;;;15.23;2.58;;;15.70;96.70;;;;;;5106139;28;20446;-58
2022/06/18 10:28:39;;;;;;;9.70;1.40;;;15.80;95.60;;;;;;5101238;28;20048;-58
2022/06/18 10:31:06;;;;;;;10.73;1.65;;;15.80;96.00;;;;;;5108279;28;20055;-57
2022/06/18 10:33:53;;;;;;;8.85;1.80;;;15.90;95.70;;;;;;5094854;28;20131;-58
2022/06/18 10:36:43;;;;;;;11.90;2.15;;;15.90;95.60;;;;;;5102840;28;20052;-57
2022/06/18 10:39:21;;;;;;;12.40;1.50;;;16.00;95.70;;;;;;5094080;28;20048;-57
2022/06/18 10:41:57;;;;;;;7.78;1.13;;;16.10;96.00;;;;;;5091493;28;20052;-59
2022/06/18 10:44:57;;;;;;;13.23;1.52;;;16.10;96.10;;;;;;5089355;28;20048;-56
2022/06/18 10:47:34;;;;;;;7.63;1.45;;;16.30;96.20;;;;;;5067570;28;20044;-57
2022/06/18 10:50:08;;;;;;;8.85;1.23;;;16.40;95.60;;;;;;5090493;28;20063;-58
2022/06/18 10:52:36;;;;;;;9.73;1.10;;;16.50;95.40;;;;;;5090681;28;20408;-56
2022/06/18 10:55:17;;;;;;;7.38;1.77;;;16.60;95.10;;;;;;5090462;27;20040;-58
2022/06/18 10:57:48;;;;;;;8.25;1.80;;;16.70;95.10;;;;;;5090579;28;20055;-56
2022/06/18 11:00:25;;;;;;;10.27;1.40;;;16.80;94.10;;;;;;5090476;28;20044;-56
2022/06/18 11:02:57;;;;;;;13.10;1.52;;;16.70;93.80;;;;;;5089358;28;20035;-57
2022/06/18 11:05:43;;;;;;;7.43;1.33;;;16.70;94.00;;;;;;5091019;28;20126;-58
2022/06/18 11:08:24;;;;;;;9.65;1.42;;;16.70;94.50;;;;;;5090082;28;20055;-57
2022/06/18 11:11:05;;;;;;;14.73;1.70;;;16.80;94.00;;;;;;5090243;28;20391;-57
2022/06/18 11:13:37;;;;;;;10.15;1.15;;;17.00;93.60;;;;;;5088657;28;20067;-58
2022/06/18 11:16:15;;;;;;;10.00;1.17;;;17.20;93.50;;;;;;5090346;28;20052;-58
2022/06/18 11:18:47;;;;;;;11.88;2.00;;;17.40;93.50;;;;;;5089933;28;20198;-58
2022/06/18 11:21:21;;;;;;;11.68;2.55;;;17.70;93.20;;;;;;5089977;28;20391;-57
2022/06/18 11:24:11;;;;;;;7.82;1.02;;;17.90;92.80;;;;;;5089075;28;20050;-57
2022/06/18 11:26:42;;;;;;;11.00;1.60;;;17.90;92.00;;;;;;5090068;28;20706;-56
2022/06/18 11:29:20;;;;;;;15.50;2.50;;;17.90;91.50;;;;;;5089923;28;20043;-56
2022/06/18 11:31:53;;;;;;;10.25;1.70;;;17.90;91.50;;;;;;5088231;28;20387;-56
2022/06/18 11:34:23;;;;;;;9.05;1.10;;;17.80;91.20;;;;;;5090182;28;20062;-56
2022/06/18 11:36:56;;;;;;;6.32;1.35;;;17.70;91.50;;;;;;5089230;28;20051;-57
2022/06/18 11:39:38;;;;;;;5.38;1.15;;;17.60;91.40;;;;;;5088757;28;20403;-58
2022/06/18 11:42:10;;;;;;;14.23;1.30;;;17.50;91.60;;;;;;5090189;28;20036;-57
2022/06/18 11:45:28;;;;;;;7.75;1.50;;;17.60;91.80;;;;;;5090017;28;20040;-57
2022/06/18 11:48:31;;;;;;;9.25;2.08;;;17.60;91.40;;;;;;5072222;28;20048;-58
2022/06/18 11:51:20;;;;;;;7.75;1.48;;;17.60;91.50;;;;;;5089868;28;20075;-56
2022/06/18 11:54:12;;;;;;;8.32;1.90;;;17.60;91.60;;;;;;5089908;28;20628;-58
2022/06/18 11:57:04;;;;;;;5.90;1.10;;;17.60;91.60;;;;;;5090155;28;20051;-56
2022/06/18 11:59:42;;;;;;;6.78;1.65;;;17.60;91.50;;;;;;5093005;28;20039;-58
2022/06/18 12:02:17;;;;;;;13.50;1.70;;;17.60;91.60;;;;;;5093957;28;20051;-57
2022/06/18 12:05:08;;;;;;;7.78;1.35;;;17.60;91.10;;;;;;5093859;28;20048;-58
2022/06/18 12:07:39;;;;;;;;;;;17.50;91.10;;;;;;5092924;28;20055;-58
2022/06/18 12:10:16;;;;;;;6.43;1.55;;;17.40;90.90;;;;;;5093833;28;20540;-60
2022/06/18 12:12:55;;;;;;;12.38;1.83;;;17.40;91.20;;;;;;5094023;28;20411;-59
2022/06/18 12:15:35;;;;;;;10.68;1.60;;;17.30;90.80;;;;;;5093213;28;20047;-57
2022/06/18 12:18:14;;;;;;;12.95;1.60;;;17.10;90.80;;;;;;5090436;28;20055;-58
2022/06/18 12:21:00;;;;;;;12.55;1.42;;;17.00;90.80;;;;;;5090833;28;20055;-59
2022/06/18 12:23:39;;;;;;;6.45;1.85;;;16.90;90.90;;;;;;5093571;28;20048;-58
2022/06/18 12:26:35;;;;;;;8.73;1.20;;;16.90;91.00;;;;;;5092562;28;20047;-57
2022/06/18 12:29:21;;;;;;;9.07;1.38;;;16.80;91.10;;;;;;5074038;28;20052;-58
2022/06/18 12:31:59;;;;;;;5.13;1.20;;;16.70;91.20;;;;;;5092190;28;20482;-57
2022/06/18 12:35:03;;;;;;;8.55;1.33;;;16.70;90.70;;;;;;5093207;28;20048;-57
2022/06/18 12:37:37;;;;;;;8.60;1.55;;;16.60;90.40;;;;;;5093174;28;20051;-56
2022/06/18 12:40:19;;;;;;;12.82;2.90;;;16.60;90.70;;;;;;5093357;28;20511;-56
2022/06/18 12:42:57;;;;;;;7.75;1.35;;;16.60;90.80;;;;;;5093411;28;20055;-56
2022/06/18 12:45:34;;;;;;;15.40;1.80;;;16.60;90.90;;;;;;5092120;28;20044;-56
2022/06/18 12:48:23;;;;;;;9.85;1.13;;;16.70;91.00;;;;;;5091595;28;20044;-56
2022/06/18 12:51:26;;;;;;;10.13;1.35;;;16.80;90.60;;;;;;5092883;28;20055;-57
2022/06/18 12:54:00;;;;;;;15.45;2.22;;;16.70;90.70;;;;;;5092842;28;20044;-56
2022/06/18 12:56:47;;;;;;;8.70;2.38;;;16.60;90.70;;;;;;5093310;28;20048;-58
2022/06/18 12:59:45;;;;;;;13.63;2.25;;;16.50;91.10;;;;;;5092611;28;20040;-57
2022/06/18 13:02:56;;;;;;;13.98;1.58;;;16.30;91.60;;;;;;5091399;28;20055;-58
2022/06/18 13:05:37;;;;;;;11.90;1.55;;;16.20;91.60;;;;;;5051151;28;20055;-57
2022/06/18 13:08:08;;;;;;;9.73;1.40;;;16.10;92.10;;;;;;5092742;28;20324;-58
2022/06/18 13:11:13;;;;;;;11.00;1.60;;;16.00;92.40;;;;;;5091545;28;20059;-57
2022/06/18 13:14:11;;;;;;;13.32;1.52;;;15.90;92.30;;;;;;5092236;28;20059;-58
2022/06/18 13:16:45;;;;;;;11.32;1.20;;;15.80;92.30;;;;;;5092365;28;20048;-58
2022/06/18 13:19:27;;;;;;;22.27;3.55;;;15.70;92.20;;;;;;5092400;28;20051;-58
2022/06/18 13:21:55;;;;;;;10.52;1.73;;;15.70;92.40;;;;;;5092477;28;20495;-58
2022/06/18 13:30:31;;;;;;;13.35;3.17;;;16.00;92.40;;;;;;5092219;28;20044;-56
2022/06/18 13:33:22;;;;;;;10.32;1.88;;;16.00;92.30;;;;;;5092124;28;20051;-58
2022/06/18 13:36:09;;;;;;;13.13;1.25;;;16.20;92.50;;;;;;5092100;28;20405;-57
2022/06/18 13:38:43;;;;;;;16.02;2.00;;;16.30;92.20;;;;;;5091804;28;20036;-57
2022/06/18 13:41:35;;;;;;;11.23;1.92;;;16.50;92.20;;;;;;5092160;28;20044;-57
2022/06/18 13:44:24;;;;;;;13.10;1.70;;;16.60;91.70;;;;;;5091845;28;20517;-58
2022/06/18 13:47:13;;;;;;;8.40;1.33;;;16.70;91.50;;;;;;5091971;28;20047;-58
2022/06/18 13:50:02;;;;;;;13.73;1.88;;;16.70;91.30;;;;;;5091893;28;20048;-57
2022/06/18 13:52:37;;;;;;;12.70;1.33;;;16.70;90.90;;;;;;5091957;28;20051;-58
2022/06/18 13:55:14;;;;;;;10.90;1.23;;;16.70;90.40;;;;;;5091795;28;20063;-58